sensor_id;sensor_type;location;lat;lon;timestamp;P1;durP1;ratioP1;P2;durP2;ratioP2
6426;SDS011;3246;42.664;23.308;2023-04-28T00:01:16;4.70;;;2.67;;
6426;SDS011;3246;42.664;23.308;2023-04-28T00:03:43;3.27;;;2.17;;
6426;SDS011;3246;42.664;23.308;2023-04-28T00:06:10;4.50;;;2.20;;
6426;SDS011;3246;42.664;23.308;2023-04-28T00:08:37;2.73;;;2.23;;
6426;SDS011;3246;42.664;23.308;2023-04-28T00:11:07;3.60;;;2.63;;
6426;SDS011;3246;42.664;23.308;2023-04-28T00:13:34;6.93;;;2.47;;
6426;SDS011;3246;42.664;23.308;2023-04-28T00:16:03;4.87;;;2.37;;
6426;SDS011;3246;42.664;23.308;2023-04-28T00:18:30;3.43;;;2.00;;
6426;SDS011;3246;42.664;23.308;2023-04-28T00:20:57;2.40;;;2.20;;
6426;SDS011;3246;42.664;23.308;2023-04-28T00:23:25;2.83;;;2.50;;
6426;SDS011;3246;42.664;23.308;2023-04-28T00:25:52;1.90;;;1.80;;
6426;SDS011;3246;42.664;23.308;2023-04-28T00:28:21;2.50;;;2.17;;
6426;SDS011;3246;42.664;23.308;2023-04-28T00:30:48;2.17;;;1.70;;
6426;SDS011;3246;42.664;23.308;2023-04-28T00:33:16;2.60;;;2.33;;
6426;SDS011;3246;42.664;23.308;2023-04-28T00:35:43;1.93;;;1.80;;
6426;SDS011;3246;42.664;23.308;2023-04-28T00:38:10;4.90;;;2.40;;
6426;SDS011;3246;42.664;23.308;2023-04-28T00:40:37;3.13;;;2.13;;
6426;SDS011;3246;42.664;23.308;2023-04-28T00:43:05;1.97;;;1.83;;
6426;SDS011;3246;42.664;23.308;2023-04-28T00:45:32;4.17;;;2.60;;
6426;SDS011;3246;42.664;23.308;2023-04-28T00:48:00;8.37;;;2.40;;
6426;SDS011;3246;42.664;23.308;2023-04-28T00:50:29;5.20;;;2.33;;
6426;SDS011;3246;42.664;23.308;2023-04-28T00:52:56;3.27;;;2.50;;
6426;SDS011;3246;42.664;23.308;2023-04-28T00:55:23;4.77;;;2.00;;
6426;SDS011;3246;42.664;23.308;2023-04-28T00:57:51;3.43;;;2.70;;
6426;SDS011;3246;42.664;23.308;2023-04-28T01:00:20;2.93;;;2.73;;
6426;SDS011;3246;42.664;23.308;2023-04-28T01:02:48;1.93;;;1.83;;
6426;SDS011;3246;42.664;23.308;2023-04-28T01:05:16;4.70;;;2.57;;
6426;SDS011;3246;42.664;23.308;2023-04-28T01:07:45;2.53;;;2.03;;
6426;SDS011;3246;42.664;23.308;2023-04-28T01:10:12;2.13;;;1.93;;
6426;SDS011;3246;42.664;23.308;2023-04-28T01:12:39;4.63;;;2.50;;
6426;SDS011;3246;42.664;23.308;2023-04-28T01:15:06;2.07;;;1.83;;
6426;SDS011;3246;42.664;23.308;2023-04-28T01:17:38;2.73;;;2.17;;
6426;SDS011;3246;42.664;23.308;2023-04-28T01:20:06;2.80;;;2.23;;
6426;SDS011;3246;42.664;23.308;2023-04-28T01:22:33;4.17;;;2.67;;
6426;SDS011;3246;42.664;23.308;2023-04-28T01:25:02;2.53;;;2.10;;
6426;SDS011;3246;42.664;23.308;2023-04-28T01:27:29;4.13;;;2.23;;
6426;SDS011;3246;42.664;23.308;2023-04-28T01:29:55;4.53;;;2.27;;
6426;SDS011;3246;42.664;23.308;2023-04-28T01:32:22;6.67;;;2.57;;
6426;SDS011;3246;42.664;23.308;2023-04-28T01:34:49;2.83;;;2.17;;
6426;SDS011;3246;42.664;23.308;2023-04-28T01:37:16;5.67;;;2.87;;
6426;SDS011;3246;42.664;23.308;2023-04-28T01:39:43;7.20;;;2.63;;
6426;SDS011;3246;42.664;23.308;2023-04-28T01:42:11;5.93;;;2.60;;
6426;SDS011;3246;42.664;23.308;2023-04-28T01:44:37;5.60;;;2.70;;
6426;SDS011;3246;42.664;23.308;2023-04-28T01:47:05;4.60;;;2.60;;
6426;SDS011;3246;42.664;23.308;2023-04-28T01:49:32;6.67;;;3.10;;
6426;SDS011;3246;42.664;23.308;2023-04-28T01:51:58;5.10;;;2.70;;
6426;SDS011;3246;42.664;23.308;2023-04-28T01:54:25;2.77;;;2.40;;
6426;SDS011;3246;42.664;23.308;2023-04-28T01:56:52;2.23;;;2.13;;
6426;SDS011;3246;42.664;23.308;2023-04-28T01:59:20;3.87;;;2.67;;
6426;SDS011;3246;42.664;23.308;2023-04-28T02:01:47;4.37;;;2.67;;
6426;SDS011;3246;42.664;23.308;2023-04-28T02:04:15;3.80;;;2.33;;
6426;SDS011;3246;42.664;23.308;2023-04-28T02:06:42;3.63;;;2.60;;
6426;SDS011;3246;42.664;23.308;2023-04-28T02:09:08;6.13;;;2.80;;
6426;SDS011;3246;42.664;23.308;2023-04-28T02:11:35;3.23;;;2.80;;
6426;SDS011;3246;42.664;23.308;2023-04-28T02:14:02;4.80;;;2.47;;
6426;SDS011;3246;42.664;23.308;2023-04-28T02:16:30;4.47;;;2.50;;
6426;SDS011;3246;42.664;23.308;2023-04-28T02:18:58;2.63;;;2.10;;
6426;SDS011;3246;42.664;23.308;2023-04-28T02:21:24;3.00;;;1.93;;
6426;SDS011;3246;42.664;23.308;2023-04-28T02:23:51;3.33;;;3.10;;
6426;SDS011;3246;42.664;23.308;2023-04-28T02:26:18;2.40;;;2.20;;
6426;SDS011;3246;42.664;23.308;2023-04-28T02:28:45;3.37;;;2.40;;
6426;SDS011;3246;42.664;23.308;2023-04-28T02:31:13;2.53;;;2.33;;
6426;SDS011;3246;42.664;23.308;2023-04-28T02:33:41;5.70;;;2.77;;
6426;SDS011;3246;42.664;23.308;2023-04-28T02:36:08;4.67;;;2.03;;
6426;SDS011;3246;42.664;23.308;2023-04-28T02:38:35;3.97;;;2.20;;
6426;SDS011;3246;42.664;23.308;2023-04-28T02:41:03;3.10;;;2.20;;
6426;SDS011;3246;42.664;23.308;2023-04-28T02:43:33;4.27;;;2.50;;
6426;SDS011;3246;42.664;23.308;2023-04-28T02:46:01;4.60;;;3.03;;
6426;SDS011;3246;42.664;23.308;2023-04-28T02:48:28;2.83;;;2.33;;
6426;SDS011;3246;42.664;23.308;2023-04-28T02:50:57;2.63;;;2.10;;
6426;SDS011;3246;42.664;23.308;2023-04-28T02:53:24;7.67;;;2.67;;
6426;SDS011;3246;42.664;23.308;2023-04-28T02:55:51;6.83;;;3.07;;
6426;SDS011;3246;42.664;23.308;2023-04-28T02:58:18;4.33;;;1.87;;
6426;SDS011;3246;42.664;23.308;2023-04-28T03:00:45;3.40;;;2.50;;
6426;SDS011;3246;42.664;23.308;2023-04-28T03:03:12;3.17;;;2.87;;
6426;SDS011;3246;42.664;23.308;2023-04-28T03:05:38;3.27;;;2.70;;
6426;SDS011;3246;42.664;23.308;2023-04-28T03:08:07;3.73;;;2.37;;
6426;SDS011;3246;42.664;23.308;2023-04-28T03:10:33;4.20;;;2.90;;
6426;SDS011;3246;42.664;23.308;2023-04-28T03:13:00;3.70;;;2.93;;
6426;SDS011;3246;42.664;23.308;2023-04-28T03:15:27;3.43;;;2.37;;
6426;SDS011;3246;42.664;23.308;2023-04-28T03:17:54;3.27;;;2.47;;
6426;SDS011;3246;42.664;23.308;2023-04-28T03:20:20;3.93;;;2.50;;
6426;SDS011;3246;42.664;23.308;2023-04-28T03:22:47;3.67;;;2.97;;
6426;SDS011;3246;42.664;23.308;2023-04-28T03:25:15;2.80;;;2.50;;
6426;SDS011;3246;42.664;23.308;2023-04-28T03:27:42;2.60;;;2.40;;
6426;SDS011;3246;42.664;23.308;2023-04-28T03:30:09;6.77;;;2.43;;
6426;SDS011;3246;42.664;23.308;2023-04-28T03:32:36;3.90;;;2.27;;
6426;SDS011;3246;42.664;23.308;2023-04-28T03:35:03;2.43;;;2.23;;
6426;SDS011;3246;42.664;23.308;2023-04-28T03:37:31;3.53;;;2.13;;
6426;SDS011;3246;42.664;23.308;2023-04-28T03:39:58;5.47;;;3.03;;
6426;SDS011;3246;42.664;23.308;2023-04-28T03:42:26;5.47;;;2.60;;
6426;SDS011;3246;42.664;23.308;2023-04-28T03:44:53;3.87;;;2.53;;
6426;SDS011;3246;42.664;23.308;2023-04-28T03:47:19;3.17;;;2.93;;
6426;SDS011;3246;42.664;23.308;2023-04-28T03:49:46;4.23;;;3.30;;
6426;SDS011;3246;42.664;23.308;2023-04-28T03:52:13;4.43;;;2.50;;
6426;SDS011;3246;42.664;23.308;2023-04-28T03:54:40;3.20;;;2.57;;
6426;SDS011;3246;42.664;23.308;2023-04-28T03:57:07;5.33;;;2.50;;
6426;SDS011;3246;42.664;23.308;2023-04-28T03:59:35;3.67;;;2.50;;
6426;SDS011;3246;42.664;23.308;2023-04-28T04:02:01;5.13;;;3.73;;
6426;SDS011;3246;42.664;23.308;2023-04-28T04:04:28;2.67;;;2.47;;
6426;SDS011;3246;42.664;23.308;2023-04-28T04:06:55;5.07;;;2.17;;
6426;SDS011;3246;42.664;23.308;2023-04-28T04:09:22;2.63;;;2.37;;
6426;SDS011;3246;42.664;23.308;2023-04-28T04:11:49;3.33;;;2.43;;
6426;SDS011;3246;42.664;23.308;2023-04-28T04:14:15;6.97;;;2.70;;
6426;SDS011;3246;42.664;23.308;2023-04-28T04:16:45;3.43;;;2.23;;
6426;SDS011;3246;42.664;23.308;2023-04-28T04:19:12;3.90;;;3.03;;
6426;SDS011;3246;42.664;23.308;2023-04-28T04:21:39;4.97;;;2.93;;
6426;SDS011;3246;42.664;23.308;2023-04-28T04:24:06;2.93;;;2.67;;
6426;SDS011;3246;42.664;23.308;2023-04-28T04:26:33;3.20;;;2.40;;
6426;SDS011;3246;42.664;23.308;2023-04-28T04:29:00;6.50;;;3.57;;
6426;SDS011;3246;42.664;23.308;2023-04-28T04:31:26;3.40;;;2.33;;
6426;SDS011;3246;42.664;23.308;2023-04-28T04:33:54;4.87;;;2.50;;
6426;SDS011;3246;42.664;23.308;2023-04-28T04:36:22;7.63;;;3.13;;
6426;SDS011;3246;42.664;23.308;2023-04-28T04:38:48;5.90;;;3.20;;
6426;SDS011;3246;42.664;23.308;2023-04-28T04:41:15;3.50;;;2.47;;
6426;SDS011;3246;42.664;23.308;2023-04-28T04:43:42;5.57;;;3.83;;
6426;SDS011;3246;42.664;23.308;2023-04-28T04:46:08;4.53;;;3.67;;
6426;SDS011;3246;42.664;23.308;2023-04-28T04:48:35;4.23;;;3.73;;
6426;SDS011;3246;42.664;23.308;2023-04-28T04:51:03;6.13;;;3.33;;
6426;SDS011;3246;42.664;23.308;2023-04-28T04:53:31;8.80;;;2.93;;
6426;SDS011;3246;42.664;23.308;2023-04-28T04:55:58;3.47;;;3.00;;
6426;SDS011;3246;42.664;23.308;2023-04-28T04:58:25;5.53;;;3.33;;
6426;SDS011;3246;42.664;23.308;2023-04-28T05:00:52;2.67;;;2.43;;
6426;SDS011;3246;42.664;23.308;2023-04-28T05:03:19;2.50;;;2.20;;
6426;SDS011;3246;42.664;23.308;2023-04-28T05:05:45;3.60;;;2.00;;
6426;SDS011;3246;42.664;23.308;2023-04-28T05:08:14;3.30;;;2.33;;
6426;SDS011;3246;42.664;23.308;2023-04-28T05:10:41;3.10;;;2.30;;
6426;SDS011;3246;42.664;23.308;2023-04-28T05:13:08;3.57;;;2.53;;
6426;SDS011;3246;42.664;23.308;2023-04-28T05:15:34;2.40;;;2.23;;
6426;SDS011;3246;42.664;23.308;2023-04-28T05:18:01;3.07;;;2.07;;
6426;SDS011;3246;42.664;23.308;2023-04-28T05:20:33;9.33;;;6.27;;
6426;SDS011;3246;42.664;23.308;2023-04-28T05:23:00;5.60;;;2.67;;
6426;SDS011;3246;42.664;23.308;2023-04-28T05:25:29;2.90;;;2.63;;
6426;SDS011;3246;42.664;23.308;2023-04-28T05:27:56;4.57;;;3.07;;
6426;SDS011;3246;42.664;23.308;2023-04-28T05:30:22;3.40;;;2.57;;
6426;SDS011;3246;42.664;23.308;2023-04-28T05:32:49;2.40;;;2.20;;
6426;SDS011;3246;42.664;23.308;2023-04-28T05:35:16;3.40;;;3.07;;
6426;SDS011;3246;42.664;23.308;2023-04-28T05:37:44;5.10;;;3.30;;
6426;SDS011;3246;42.664;23.308;2023-04-28T05:40:11;2.80;;;2.60;;
6426;SDS011;3246;42.664;23.308;2023-04-28T05:42:39;4.23;;;3.00;;
6426;SDS011;3246;42.664;23.308;2023-04-28T05:45:06;4.43;;;3.00;;
6426;SDS011;3246;42.664;23.308;2023-04-28T05:47:34;5.00;;;3.00;;
6426;SDS011;3246;42.664;23.308;2023-04-28T05:50:01;3.73;;;2.80;;
6426;SDS011;3246;42.664;23.308;2023-04-28T05:52:28;4.30;;;2.90;;
6426;SDS011;3246;42.664;23.308;2023-04-28T05:54:54;2.60;;;2.40;;
6426;SDS011;3246;42.664;23.308;2023-04-28T05:57:21;4.37;;;2.67;;
6426;SDS011;3246;42.664;23.308;2023-04-28T05:59:49;3.13;;;2.40;;
6426;SDS011;3246;42.664;23.308;2023-04-28T06:02:16;7.17;;;2.80;;
6426;SDS011;3246;42.664;23.308;2023-04-28T06:04:43;3.30;;;2.23;;
6426;SDS011;3246;42.664;23.308;2023-04-28T06:07:10;4.73;;;2.73;;
6426;SDS011;3246;42.664;23.308;2023-04-28T06:09:36;4.87;;;2.93;;
6426;SDS011;3246;42.664;23.308;2023-04-28T06:12:03;6.73;;;3.07;;
6426;SDS011;3246;42.664;23.308;2023-04-28T06:14:30;2.77;;;2.20;;
6426;SDS011;3246;42.664;23.308;2023-04-28T06:16:59;5.33;;;3.03;;
6426;SDS011;3246;42.664;23.308;2023-04-28T06:19:25;5.57;;;2.50;;
6426;SDS011;3246;42.664;23.308;2023-04-28T06:21:52;3.10;;;2.03;;
6426;SDS011;3246;42.664;23.308;2023-04-28T06:24:19;4.37;;;3.00;;
6426;SDS011;3246;42.664;23.308;2023-04-28T06:26:46;3.07;;;2.50;;
6426;SDS011;3246;42.664;23.308;2023-04-28T06:29:13;7.67;;;2.67;;
6426;SDS011;3246;42.664;23.308;2023-04-28T06:31:39;3.27;;;2.70;;
6426;SDS011;3246;42.664;23.308;2023-04-28T06:34:08;9.30;;;3.40;;
6426;SDS011;3246;42.664;23.308;2023-04-28T06:36:35;3.13;;;2.70;;
6426;SDS011;3246;42.664;23.308;2023-04-28T06:39:01;3.70;;;2.63;;
6426;SDS011;3246;42.664;23.308;2023-04-28T06:41:28;3.97;;;2.50;;
6426;SDS011;3246;42.664;23.308;2023-04-28T06:43:55;2.63;;;2.20;;
6426;SDS011;3246;42.664;23.308;2023-04-28T06:46:22;3.47;;;2.63;;
6426;SDS011;3246;42.664;23.308;2023-04-28T06:48:49;4.90;;;3.47;;
6426;SDS011;3246;42.664;23.308;2023-04-28T06:51:17;7.03;;;2.50;;
6426;SDS011;3246;42.664;23.308;2023-04-28T06:53:44;7.37;;;2.40;;
6426;SDS011;3246;42.664;23.308;2023-04-28T06:56:11;2.87;;;2.50;;
6426;SDS011;3246;42.664;23.308;2023-04-28T06:58:38;3.57;;;2.43;;
6426;SDS011;3246;42.664;23.308;2023-04-28T07:01:05;7.73;;;3.00;;
6426;SDS011;3246;42.664;23.308;2023-04-28T07:03:31;2.83;;;2.40;;
6426;SDS011;3246;42.664;23.308;2023-04-28T07:05:59;2.70;;;2.33;;
6426;SDS011;3246;42.664;23.308;2023-04-28T07:08:28;3.60;;;3.30;;
6426;SDS011;3246;42.664;23.308;2023-04-28T07:10:56;6.57;;;2.40;;
6426;SDS011;3246;42.664;23.308;2023-04-28T07:13:23;5.10;;;2.83;;
6426;SDS011;3246;42.664;23.308;2023-04-28T07:15:50;4.00;;;2.13;;
6426;SDS011;3246;42.664;23.308;2023-04-28T07:18:17;2.73;;;2.53;;
6426;SDS011;3246;42.664;23.308;2023-04-28T07:20:43;5.13;;;2.63;;
6426;SDS011;3246;42.664;23.308;2023-04-28T07:23:10;2.30;;;2.10;;
6426;SDS011;3246;42.664;23.308;2023-04-28T07:25:38;3.07;;;2.70;;
6426;SDS011;3246;42.664;23.308;2023-04-28T07:28:06;3.73;;;2.80;;
6426;SDS011;3246;42.664;23.308;2023-04-28T07:30:33;3.27;;;2.23;;
6426;SDS011;3246;42.664;23.308;2023-04-28T07:33:00;4.63;;;2.23;;
6426;SDS011;3246;42.664;23.308;2023-04-28T07:35:27;2.80;;;2.40;;
6426;SDS011;3246;42.664;23.308;2023-04-28T07:37:54;2.60;;;2.10;;
6426;SDS011;3246;42.664;23.308;2023-04-28T07:40:22;3.80;;;2.23;;
6426;SDS011;3246;42.664;23.308;2023-04-28T07:42:50;4.57;;;3.43;;
6426;SDS011;3246;42.664;23.308;2023-04-28T07:45:17;4.93;;;2.53;;
6426;SDS011;3246;42.664;23.308;2023-04-28T07:47:44;4.00;;;2.00;;
6426;SDS011;3246;42.664;23.308;2023-04-28T07:50:11;4.90;;;2.63;;
6426;SDS011;3246;42.664;23.308;2023-04-28T07:52:38;4.60;;;1.93;;
6426;SDS011;3246;42.664;23.308;2023-04-28T07:55:04;6.63;;;2.63;;
6426;SDS011;3246;42.664;23.308;2023-04-28T07:57:31;2.87;;;2.23;;
6426;SDS011;3246;42.664;23.308;2023-04-28T08:00:00;2.40;;;1.77;;
6426;SDS011;3246;42.664;23.308;2023-04-28T08:02:27;6.13;;;2.17;;
6426;SDS011;3246;42.664;23.308;2023-04-28T08:04:54;2.93;;;2.00;;
6426;SDS011;3246;42.664;23.308;2023-04-28T08:07:20;2.30;;;1.93;;
6426;SDS011;3246;42.664;23.308;2023-04-28T08:09:48;3.67;;;2.37;;
6426;SDS011;3246;42.664;23.308;2023-04-28T08:12:15;2.43;;;2.00;;
6426;SDS011;3246;42.664;23.308;2023-04-28T08:14:42;1.90;;;1.70;;
6426;SDS011;3246;42.664;23.308;2023-04-28T08:17:10;3.93;;;1.43;;
6426;SDS011;3246;42.664;23.308;2023-04-28T08:19:37;5.90;;;2.27;;
6426;SDS011;3246;42.664;23.308;2023-04-28T08:22:04;4.30;;;2.27;;
6426;SDS011;3246;42.664;23.308;2023-04-28T08:24:32;4.40;;;2.10;;
6426;SDS011;3246;42.664;23.308;2023-04-28T08:26:59;3.40;;;1.83;;
6426;SDS011;3246;42.664;23.308;2023-04-28T08:29:27;2.27;;;1.83;;
6426;SDS011;3246;42.664;23.308;2023-04-28T08:31:54;3.47;;;1.83;;
6426;SDS011;3246;42.664;23.308;2023-04-28T08:34:23;5.03;;;2.00;;
6426;SDS011;3246;42.664;23.308;2023-04-28T08:36:50;3.37;;;2.10;;
6426;SDS011;3246;42.664;23.308;2023-04-28T08:39:17;2.27;;;1.90;;
6426;SDS011;3246;42.664;23.308;2023-04-28T08:41:46;4.15;;;1.75;;
6426;SDS011;3246;42.664;23.308;2023-04-28T08:44:13;5.87;;;2.13;;
6426;SDS011;3246;42.664;23.308;2023-04-28T08:46:42;2.73;;;2.13;;
6426;SDS011;3246;42.664;23.308;2023-04-28T08:49:11;5.57;;;2.70;;
6426;SDS011;3246;42.664;23.308;2023-04-28T08:51:44;5.20;;;2.10;;
6426;SDS011;3246;42.664;23.308;2023-04-28T08:54:15;5.93;;;2.33;;
6426;SDS011;3246;42.664;23.308;2023-04-28T08:56:44;4.47;;;2.43;;
6426;SDS011;3246;42.664;23.308;2023-04-28T08:59:11;5.87;;;2.40;;
6426;SDS011;3246;42.664;23.308;2023-04-28T09:01:38;8.98;;;2.30;;
6426;SDS011;3246;42.664;23.308;2023-04-28T09:04:05;2.25;;;2.03;;
6426;SDS011;3246;42.664;23.308;2023-04-28T09:06:32;4.95;;;1.85;;
6426;SDS011;3246;42.664;23.308;2023-04-28T09:09:21;2.20;;;1.87;;
6426;SDS011;3246;42.664;23.308;2023-04-28T09:11:53;5.03;;;2.40;;
6426;SDS011;3246;42.664;23.308;2023-04-28T09:14:20;3.15;;;2.17;;
6426;SDS011;3246;42.664;23.308;2023-04-28T09:16:48;5.25;;;2.30;;
6426;SDS011;3246;42.664;23.308;2023-04-28T09:19:15;3.42;;;2.38;;
6426;SDS011;3246;42.664;23.308;2023-04-28T09:21:46;3.58;;;1.67;;
6426;SDS011;3246;42.664;23.308;2023-04-28T09:26:57;1.67;;;1.58;;
6426;SDS011;3246;42.664;23.308;2023-04-28T09:29:25;3.00;;;2.17;;
6426;SDS011;3246;42.664;23.308;2023-04-28T09:31:52;1.73;;;1.60;;
6426;SDS011;3246;42.664;23.308;2023-04-28T09:34:19;2.45;;;1.80;;
6426;SDS011;3246;42.664;23.308;2023-04-28T09:36:45;2.22;;;1.52;;
6426;SDS011;3246;42.664;23.308;2023-04-28T09:39:12;3.65;;;1.90;;
6426;SDS011;3246;42.664;23.308;2023-04-28T09:41:41;8.30;;;2.10;;
6426;SDS011;3246;42.664;23.308;2023-04-28T09:44:13;1.50;;;1.40;;
6426;SDS011;3246;42.664;23.308;2023-04-28T09:46:41;1.80;;;1.70;;
6426;SDS011;3246;42.664;23.308;2023-04-28T09:49:08;9.43;;;2.17;;
6426;SDS011;3246;42.664;23.308;2023-04-28T09:51:35;2.92;;;1.95;;
6426;SDS011;3246;42.664;23.308;2023-04-28T09:54:03;3.20;;;1.60;;
6426;SDS011;3246;42.664;23.308;2023-04-28T09:56:31;1.83;;;1.73;;
6426;SDS011;3246;42.664;23.308;2023-04-28T09:59:03;1.75;;;1.63;;
6426;SDS011;3246;42.664;23.308;2023-04-28T10:01:31;2.22;;;1.73;;
6426;SDS011;3246;42.664;23.308;2023-04-28T10:04:02;3.08;;;1.30;;
6426;SDS011;3246;42.664;23.308;2023-04-28T10:06:30;9.30;;;2.33;;
6426;SDS011;3246;42.664;23.308;2023-04-28T10:09:00;4.88;;;1.40;;
6426;SDS011;3246;42.664;23.308;2023-04-28T10:11:28;5.82;;;1.83;;
6426;SDS011;3246;42.664;23.308;2023-04-28T10:13:55;2.33;;;1.38;;
6426;SDS011;3246;42.664;23.308;2023-04-28T10:16:23;1.83;;;1.33;;
6426;SDS011;3246;42.664;23.308;2023-04-28T10:18:55;4.15;;;1.75;;
6426;SDS011;3246;42.664;23.308;2023-04-28T10:21:22;4.88;;;1.75;;
6426;SDS011;3246;42.664;23.308;2023-04-28T10:23:59;3.15;;;1.50;;
6426;SDS011;3246;42.664;23.308;2023-04-28T10:29:38;1.38;;;1.25;;
6426;SDS011;3246;42.664;23.308;2023-04-28T10:32:14;2.00;;;1.90;;
6426;SDS011;3246;42.664;23.308;2023-04-28T10:34:50;2.53;;;1.55;;
6426;SDS011;3246;42.664;23.308;2023-04-28T10:37:17;1.70;;;1.20;;
6426;SDS011;3246;42.664;23.308;2023-04-28T10:42:52;4.82;;;2.00;;
6426;SDS011;3246;42.664;23.308;2023-04-28T10:51:21;2.10;;;1.20;;
6426;SDS011;3246;42.664;23.308;2023-04-28T10:59:43;2.63;;;1.30;;
6426;SDS011;3246;42.664;23.308;2023-04-28T11:05:18;2.80;;;1.30;;
6426;SDS011;3246;42.664;23.308;2023-04-28T11:11:16;1.20;;;1.10;;
6426;SDS011;3246;42.664;23.308;2023-04-28T11:13:48;3.33;;;1.13;;
6426;SDS011;3246;42.664;23.308;2023-04-28T11:16:16;2.03;;;1.30;;
6426;SDS011;3246;42.664;23.308;2023-04-28T11:18:49;3.53;;;1.42;;
6426;SDS011;3246;42.664;23.308;2023-04-28T11:21:22;1.60;;;1.40;;
6426;SDS011;3246;42.664;23.308;2023-04-28T11:23:52;1.88;;;1.70;;
6426;SDS011;3246;42.664;23.308;2023-04-28T11:26:19;4.55;;;1.50;;
6426;SDS011;3246;42.664;23.308;2023-04-28T11:28:51;1.13;;;1.02;;
6426;SDS011;3246;42.664;23.308;2023-04-28T11:31:20;1.52;;;1.20;;
6426;SDS011;3246;42.664;23.308;2023-04-28T11:33:49;2.53;;;1.02;;
6426;SDS011;3246;42.664;23.308;2023-04-28T11:36:31;2.47;;;1.80;;
6426;SDS011;3246;42.664;23.308;2023-04-28T11:39:00;2.05;;;1.70;;
6426;SDS011;3246;42.664;23.308;2023-04-28T11:41:29;1.75;;;1.40;;
6426;SDS011;3246;42.664;23.308;2023-04-28T11:43:56;1.98;;;1.48;;
6426;SDS011;3246;42.664;23.308;2023-04-28T11:46:23;1.98;;;1.17;;
6426;SDS011;3246;42.664;23.308;2023-04-28T11:49:00;4.72;;;1.25;;
6426;SDS011;3246;42.664;23.308;2023-04-28T11:51:33;1.40;;;1.30;;
6426;SDS011;3246;42.664;23.308;2023-04-28T11:54:02;2.42;;;1.55;;
6426;SDS011;3246;42.664;23.308;2023-04-28T11:56:31;2.53;;;1.60;;
6426;SDS011;3246;42.664;23.308;2023-04-28T11:59:04;12.27;;;1.85;;
6426;SDS011;3246;42.664;23.308;2023-04-28T12:01:33;2.83;;;1.70;;
6426;SDS011;3246;42.664;23.308;2023-04-28T12:04:02;1.92;;;1.80;;
6426;SDS011;3246;42.664;23.308;2023-04-28T12:06:29;2.28;;;1.75;;
6426;SDS011;3246;42.664;23.308;2023-04-28T12:08:57;2.95;;;1.38;;
6426;SDS011;3246;42.664;23.308;2023-04-28T12:11:28;1.52;;;1.40;;
6426;SDS011;3246;42.664;23.308;2023-04-28T12:14:01;6.53;;;2.00;;
6426;SDS011;3246;42.664;23.308;2023-04-28T12:16:38;1.70;;;1.30;;
6426;SDS011;3246;42.664;23.308;2023-04-28T12:19:09;1.85;;;1.40;;
6426;SDS011;3246;42.664;23.308;2023-04-28T12:21:37;1.45;;;1.42;;
6426;SDS011;3246;42.664;23.308;2023-04-28T12:24:16;3.20;;;1.65;;
6426;SDS011;3246;42.664;23.308;2023-04-28T12:26:43;3.17;;;1.70;;
6426;SDS011;3246;42.664;23.308;2023-04-28T12:32:03;1.95;;;1.30;;
6426;SDS011;3246;42.664;23.308;2023-04-28T12:34:30;1.73;;;1.25;;
6426;SDS011;3246;42.664;23.308;2023-04-28T12:36:58;1.20;;;1.15;;
6426;SDS011;3246;42.664;23.308;2023-04-28T12:39:26;1.50;;;1.40;;
6426;SDS011;3246;42.664;23.308;2023-04-28T12:41:53;2.05;;;1.73;;
6426;SDS011;3246;42.664;23.308;2023-04-28T12:44:21;5.18;;;1.65;;
6426;SDS011;3246;42.664;23.308;2023-04-28T12:46:48;1.90;;;1.35;;
6426;SDS011;3246;42.664;23.308;2023-04-28T12:49:15;1.58;;;1.48;;
6426;SDS011;3246;42.664;23.308;2023-04-28T12:51:41;1.83;;;1.63;;
6426;SDS011;3246;42.664;23.308;2023-04-28T12:54:09;1.63;;;1.13;;
6426;SDS011;3246;42.664;23.308;2023-04-28T12:56:37;1.20;;;1.10;;
6426;SDS011;3246;42.664;23.308;2023-04-28T12:59:04;5.85;;;1.55;;
6426;SDS011;3246;42.664;23.308;2023-04-28T13:01:30;3.88;;;1.63;;
6426;SDS011;3246;42.664;23.308;2023-04-28T13:03:57;2.17;;;1.30;;
6426;SDS011;3246;42.664;23.308;2023-04-28T13:06:25;1.88;;;1.35;;
6426;SDS011;3246;42.664;23.308;2023-04-28T13:08:53;2.28;;;1.88;;
6426;SDS011;3246;42.664;23.308;2023-04-28T13:11:19;1.65;;;1.55;;
6426;SDS011;3246;42.664;23.308;2023-04-28T13:13:50;3.42;;;1.30;;
6426;SDS011;3246;42.664;23.308;2023-04-28T13:16:17;6.28;;;2.00;;
6426;SDS011;3246;42.664;23.308;2023-04-28T13:18:44;2.97;;;1.85;;
6426;SDS011;3246;42.664;23.308;2023-04-28T13:21:10;2.17;;;1.65;;
6426;SDS011;3246;42.664;23.308;2023-04-28T13:23:37;2.97;;;1.40;;
6426;SDS011;3246;42.664;23.308;2023-04-28T13:26:04;3.60;;;1.63;;
6426;SDS011;3246;42.664;23.308;2023-04-28T13:28:32;1.90;;;1.73;;
6426;SDS011;3246;42.664;23.308;2023-04-28T13:31:00;4.63;;;2.00;;
6426;SDS011;3246;42.664;23.308;2023-04-28T13:33:27;4.30;;;1.60;;
6426;SDS011;3246;42.664;23.308;2023-04-28T13:35:55;2.28;;;1.67;;
6426;SDS011;3246;42.664;23.308;2023-04-28T13:38:23;2.63;;;1.75;;
6426;SDS011;3246;42.664;23.308;2023-04-28T13:40:50;7.60;;;1.67;;
6426;SDS011;3246;42.664;23.308;2023-04-28T13:43:17;2.65;;;1.58;;
6426;SDS011;3246;42.664;23.308;2023-04-28T13:45:44;2.55;;;1.80;;
6426;SDS011;3246;42.664;23.308;2023-04-28T13:48:12;3.38;;;1.67;;
6426;SDS011;3246;42.664;23.308;2023-04-28T13:50:40;2.63;;;1.52;;
6426;SDS011;3246;42.664;23.308;2023-04-28T13:53:07;1.98;;;1.38;;
6426;SDS011;3246;42.664;23.308;2023-04-28T13:55:33;1.65;;;0.98;;
6426;SDS011;3246;42.664;23.308;2023-04-28T13:58:00;2.53;;;1.42;;
6426;SDS011;3246;42.664;23.308;2023-04-28T14:00:29;4.20;;;1.65;;
6426;SDS011;3246;42.664;23.308;2023-04-28T14:02:56;3.60;;;1.92;;
6426;SDS011;3246;42.664;23.308;2023-04-28T14:05:25;3.92;;;1.15;;
6426;SDS011;3246;42.664;23.308;2023-04-28T14:07:52;5.70;;;1.60;;
6426;SDS011;3246;42.664;23.308;2023-04-28T14:10:19;1.70;;;1.48;;
6426;SDS011;3246;42.664;23.308;2023-04-28T14:12:46;3.70;;;1.83;;
6426;SDS011;3246;42.664;23.308;2023-04-28T14:15:13;4.22;;;1.88;;
6426;SDS011;3246;42.664;23.308;2023-04-28T14:17:41;9.00;;;2.30;;
6426;SDS011;3246;42.664;23.308;2023-04-28T14:20:08;3.97;;;1.45;;
6426;SDS011;3246;42.664;23.308;2023-04-28T14:22:37;2.60;;;1.25;;
6426;SDS011;3246;42.664;23.308;2023-04-28T14:25:05;4.57;;;1.50;;
6426;SDS011;3246;42.664;23.308;2023-04-28T14:27:32;3.20;;;1.52;;
6426;SDS011;3246;42.664;23.308;2023-04-28T14:29:59;2.15;;;1.42;;
6426;SDS011;3246;42.664;23.308;2023-04-28T14:32:26;2.75;;;1.70;;
6426;SDS011;3246;42.664;23.308;2023-04-28T14:34:53;3.60;;;2.65;;
6426;SDS011;3246;42.664;23.308;2023-04-28T14:37:20;2.05;;;1.48;;
6426;SDS011;3246;42.664;23.308;2023-04-28T14:39:48;2.95;;;2.75;;
6426;SDS011;3246;42.664;23.308;2023-04-28T14:42:15;2.47;;;2.28;;
6426;SDS011;3246;42.664;23.308;2023-04-28T14:44:42;2.10;;;1.77;;
6426;SDS011;3246;42.664;23.308;2023-04-28T14:47:10;3.95;;;2.17;;
6426;SDS011;3246;42.664;23.308;2023-04-28T14:49:37;3.70;;;1.55;;
6426;SDS011;3246;42.664;23.308;2023-04-28T14:52:05;4.15;;;1.88;;
6426;SDS011;3246;42.664;23.308;2023-04-28T14:54:32;1.90;;;1.75;;
6426;SDS011;3246;42.664;23.308;2023-04-28T14:57:00;2.88;;;1.50;;
6426;SDS011;3246;42.664;23.308;2023-04-28T14:59:27;4.35;;;1.73;;
6426;SDS011;3246;42.664;23.308;2023-04-28T15:01:55;1.75;;;1.65;;
6426;SDS011;3246;42.664;23.308;2023-04-28T15:04:21;3.70;;;1.60;;
6426;SDS011;3246;42.664;23.308;2023-04-28T15:06:53;3.42;;;1.55;;
6426;SDS011;3246;42.664;23.308;2023-04-28T15:09:20;2.10;;;1.52;;
6426;SDS011;3246;42.664;23.308;2023-04-28T15:11:47;3.83;;;1.77;;
6426;SDS011;3246;42.664;23.308;2023-04-28T15:14:15;2.58;;;1.67;;
6426;SDS011;3246;42.664;23.308;2023-04-28T15:16:42;3.85;;;1.88;;
6426;SDS011;3246;42.664;23.308;2023-04-28T15:19:09;2.05;;;1.75;;
6426;SDS011;3246;42.664;23.308;2023-04-28T15:21:36;4.13;;;1.63;;
6426;SDS011;3246;42.664;23.308;2023-04-28T15:24:04;5.35;;;1.67;;
6426;SDS011;3246;42.664;23.308;2023-04-28T15:26:31;1.50;;;1.38;;
6426;SDS011;3246;42.664;23.308;2023-04-28T15:28:58;2.55;;;2.30;;
6426;SDS011;3246;42.664;23.308;2023-04-28T15:31:26;3.42;;;2.17;;
6426;SDS011;3246;42.664;23.308;2023-04-28T15:33:53;1.85;;;1.65;;